Chang Sheng — V3PK — position and weather

sailwx.info

Track history (hours):
 
Tides and Currents Weather Stations Pressure Air Temp Water Temp Dewpoint Dewpoint Depression Visibility Wind Speed Wind Dir Waves Ship Positions

Chang Sheng

Last reported at 2018-May-15 14:14 UTC. Time now 2018-May-24 12:09 UTC.
Position N 33°37' E 131°15'.
Warning: this ship's position is 8 days out of date.

Length 86 m; draft 4 m.

Type: Cargo ship. MMSI: 312161000.

Date/timePositionNaut miles runAvg speedWind from/ knotsBaromVisibWave heightAir tempDewpointWater temp
2018-May-15 14:14N 33°37' E 131°15'0 0.0
2018-May-15 13:56N 33°37' E 131°15'0 0.0
2018-May-15 13:29N 33°37' E 131°15'0 0.0
2018-May-15 12:53N 33°37' E 131°15'0 0.0
2018-May-15 12:23N 33°37' E 131°15'0 0.0
2018-May-15 11:59N 33°37' E 131°15'0 0.0
2018-May-15 11:29N 33°37' E 131°15'0 0.0
2018-May-15 10:59N 33°37' E 131°15'0 0.0
2018-May-15 10:29N 33°37' E 131°15'0 0.0
2018-May-15 09:59N 33°37' E 131°15'0 0.0
2018-May-15 09:05N 33°37' E 131°15'0 0.0
2018-May-15 08:53N 33°37' E 131°15'0 0.0
2018-May-15 08:29N 33°37' E 131°15'0 0.0
2018-May-15 07:56N 33°37' E 131°15'0 0.0
2018-May-15 07:29N 33°37' E 131°15'0 0.0
2018-May-15 06:59N 33°37' E 131°15'0 0.0
2018-May-15 06:29N 33°37' E 131°15'0 0.0
2018-May-15 05:59N 33°37' E 131°15'0 0.0
2018-May-15 05:30N 33°37' E 131°15'0 0.9
2018-May-15 05:00N 33°37' E 131°15'3 5.2
2018-May-15 04:30N 33°40' E 131°15'510.4
2018-May-15 04:00N 33°44' E 131°11'510.6
2018-May-15 03:30N 33°48' E 131°08'510.6
2018-May-15 03:00N 33°53' E 131°05'510.4
2018-May-15 02:30N 33°58' E 131°02'4 8.5
2018-May-15 02:00N 33°57' E 130°57'4 7.4
2018-May-15 01:30N 33°54' E 130°54'4 7.8
2018-May-15 01:00N 33°58' E 130°52'1 2.2
2018-May-15 00:30N 33°58' E 130°53'0 0.0
2018-May-15 00:00N 33°58' E 130°53'0 0.0
2018-May-14 23:30N 33°58' E 130°53'4 7.5
2018-May-14 23:00N 34°01' E 130°50'510.1
2018-May-14 22:30N 34°05' E 130°46'510.2
2018-May-14 22:00N 34°08' E 130°42'510.1
2018-May-14 21:30N 34°13' E 130°38'510.0
2018-May-14 21:00N 34°17' E 130°35'510.2
2018-May-14 20:30N 34°21' E 130°32'610.3
2018-May-14 19:57N 34°27' E 130°30'510.5
2018-May-14 19:30N 34°31' E 130°27'510.3
2018-May-14 19:00N 34°36' E 130°24'510.3
2018-May-14 18:30N 34°40' E 130°21'5 9.9
2018-May-14 18:00N 34°44' E 130°18'510.1
2018-May-14 17:30N 34°49' E 130°16'5 9.9
2018-May-14 17:00N 34°53' E 130°12'4 8.9
2018-May-14 16:30N 34°57' E 130°11'510.0
2018-May-14 16:00N 35°02' E 130°09'910.1
2018-May-14 15:04N 35°11' E 130°04'1 9.7
2018-May-14 14:55N 35°12' E 130°04'4 9.4
2018-May-14 14:27N 35°16' E 130°01'5 9.5
2018-May-14 13:54N 35°20' E 129°58'5 9.1
2018-May-14 13:21N 35°25' E 129°56'10 9.0
2018-May-14 12:11N 35°35' E 129°51'  
2018-May-12 00:15N 34°34' E 130°26'310.2
2018-May-11 23:59N 34°31' E 130°27'510.3
2018-May-11 23:31N 34°27' E 130°30'510.1
2018-May-11 22:59N 34°22' E 130°33'510.0
2018-May-11 22:30N 34°18' E 130°35'510.0
2018-May-11 21:59N 34°13' E 130°38'5 9.8
2018-May-11 21:30N 34°09' E 130°41'5 9.9
2018-May-11 21:01N 34°06' E 130°45'5 9.8
2018-May-11 20:31N 34°03' E 130°49'5 9.2
2018-May-11 20:01N 33°59' E 130°53'4 8.3
2018-May-11 19:30N 33°55' E 130°54'4 7.3
2018-May-11 19:00N 33°57' E 130°57'4 7.4
2018-May-11 18:30N 33°58' E 131°01'4 7.0
2018-May-11 18:01N 33°56' E 131°05'3 6.5
2018-May-11 17:30N 33°54' E 131°08'3 6.7
2018-May-11 17:00N 33°52' E 131°11'4 9.0
2018-May-11 16:31N 33°51' E 131°16'5 9.8
2018-May-11 16:01N 33°50' E 131°22'5 9.5
2018-May-11 15:31N 33°49' E 131°28'4 8.9
2018-May-11 15:01N 33°48' E 131°33'4 8.6
2018-May-11 14:30N 33°47' E 131°38'4 8.7
2018-May-11 14:01N 33°46' E 131°43'5 9.0
2018-May-11 13:30N 33°42' E 131°46'4 8.7
2018-May-11 13:00N 33°38' E 131°48'4 8.7
2018-May-11 12:30N 33°34' E 131°50'5 9.4
2018-May-11 12:00N 33°30' E 131°53'5 9.3
2018-May-11 11:30N 33°26' E 131°55'5 9.5
2018-May-11 11:01N 33°22' E 131°58'5 8.8
2018-May-11 10:26N 33°17' E 132°02'323 8.1
2018-May-09 18:31N 34°30' E 138°20'0 8.9
2018-May-09 18:28N 34°30' E 138°21'5 9.7
2018-May-09 17:57N 34°31' E 138°27'19 9.3
2018-May-09 15:51N 34°32' E 138°50'3 9.4
2018-May-09 15:30N 34°33' E 138°54'6 9.6
2018-May-09 14:51N 34°35' E 139°01'3 9.4
2018-May-09 14:31N 34°38' E 139°04'5 9.3
2018-May-09 14:00N 34°41' E 139°08'5 9.2
2018-May-09 13:28N 34°44' E 139°12'6 8.9
2018-May-09 12:51N 34°49' E 139°17'3 8.9
2018-May-09 12:29N 34°51' E 139°19'7 8.7
2018-May-09 11:41N 34°55' E 139°26'2 8.3
2018-May-09 11:25N 34°57' E 139°28'4 8.4
2018-May-09 11:00N 34°59' E 139°31'4 9.0
2018-May-09 10:30N 35°02' E 139°35'510.2
2018-May-09 10:00N 35°05' E 139°40'510.9
2018-May-09 09:30N 35°09' E 139°44'5 9.6
2018-May-09 09:00N 35°14' E 139°47'5 9.5
2018-May-09 08:30N 35°18' E 139°44'4 8.7
2018-May-09 08:00N 35°22' E 139°42'5 9.2
2018-May-09 07:30N 35°26' E 139°45'3 5.8
2018-May-09 06:58N 35°28' E 139°48'0 0.0
2018-May-09 06:28N 35°28' E 139°48'0 0.0
2018-May-09 05:58N 35°28' E 139°48'0 0.0
2018-May-09 05:28N 35°28' E 139°48'0 0.0
2018-May-09 04:58N 35°28' E 139°48'0 0.0
2018-May-09 04:28N 35°28' E 139°48'0 0.0
2018-May-09 03:58N 35°28' E 139°48'0 0.0
2018-May-09 03:28N 35°28' E 139°48'0 0.0
2018-May-09 02:58N 35°28' E 139°48'0 0.0
2018-May-09 02:25N 35°28' E 139°48'0 0.1
2018-May-09 02:00N 35°28' E 139°48'0 0.1
2018-May-09 01:30N 35°28' E 139°48'0 0.1
2018-May-09 01:00N 35°28' E 139°48'0 0.0
2018-May-09 00:30N 35°28' E 139°48'0 0.0
2018-May-09 00:00N 35°28' E 139°48'0 0.1
2018-May-08 23:30N 35°28' E 139°48'0 0.0
2018-May-08 23:00N 35°28' E 139°48'0 0.1
2018-May-08 22:30N 35°28' E 139°48'0 0.1
2018-May-08 22:00N 35°28' E 139°48'0 0.0
2018-May-08 21:30N 35°28' E 139°48'0 0.0
2018-May-08 21:00N 35°28' E 139°48'0 0.0
2018-May-08 20:30N 35°28' E 139°48'0 0.0
2018-May-08 20:00N 35°28' E 139°48'0 0.0
2018-May-08 19:30N 35°28' E 139°48'0 0.0
2018-May-08 19:00N 35°28' E 139°48'0 0.0
2018-May-08 18:30N 35°28' E 139°48'0 0.0
2018-May-08 18:00N 35°28' E 139°48'0 0.0
2018-May-08 17:30N 35°28' E 139°48'0 0.0
2018-May-08 17:00N 35°28' E 139°48'0 0.0
2018-May-08 16:30N 35°28' E 139°48'0 0.0
2018-May-08 16:00N 35°28' E 139°48'0 0.0
2018-May-08 15:30N 35°28' E 139°48'0 0.0
2018-May-08 15:00N 35°28' E 139°48'0 0.0
2018-May-08 14:24N 35°28' E 139°48'0 0.0
2018-May-08 13:57N 35°28' E 139°48'0 0.0
2018-May-08 13:30N 35°28' E 139°48'0 0.0
2018-May-08 13:00N 35°28' E 139°48'0 0.0
2018-May-08 12:30N 35°28' E 139°48'0 0.0
2018-May-08 12:00N 35°28' E 139°48'0 0.0
2018-May-08 11:27N 35°28' E 139°48'0 0.0
2018-May-08 11:00N 35°28' E 139°48'0 0.0
2018-May-08 10:30N 35°29' E 139°48'2 3.7
2018-May-08 10:00N 35°30' E 139°47'2 4.0
2018-May-08 09:30N 35°31' E 139°45'0 0.0
2018-May-08 08:59N 35°31' E 139°45'0 0.0
2018-May-08 08:29N 35°31' E 139°45'0 0.0
2018-May-08 07:59N 35°31' E 139°45'0 0.0
2018-May-08 07:28N 35°31' E 139°45'0 0.0
2018-May-08 06:58N 35°31' E 139°45'0 0.0
2018-May-08 06:28N 35°31' E 139°45'0 0.0
2018-May-08 05:58N 35°31' E 139°45'0 0.0
2018-May-08 05:28N 35°31' E 139°45'0 0.0
2018-May-08 04:55N 35°31' E 139°45'0 0.0
2018-May-08 04:28N 35°31' E 139°45'0 0.0
2018-May-08 03:58N 35°31' E 139°45'0 0.0
2018-May-08 03:28N 35°31' E 139°45'0 0.0
2018-May-08 02:58N 35°31' E 139°45'0 0.0
2018-May-08 02:28N 35°31' E 139°45'0 0.0
2018-May-08 01:58N 35°31' E 139°45'0 0.0
2018-May-08 01:28N 35°31' E 139°45'0 0.0
2018-May-08 00:58N 35°31' E 139°45'0 0.0
2018-May-08 00:28N 35°31' E 139°45'0 0.0
2018-May-07 23:58N 35°31' E 139°45'0 0.0
2018-May-07 23:28N 35°31' E 139°45'0 0.0
2018-May-07 22:55N 35°31' E 139°45'0 0.0
2018-May-07 22:28N 35°31' E 139°45'0 0.0
2018-May-07 21:58N 35°31' E 139°45'0 0.0
2018-May-07 21:25N 35°31' E 139°45'0 0.0
2018-May-07 20:55N 35°31' E 139°45'0 0.0
2018-May-07 20:28N 35°31' E 139°45'0 0.0
2018-May-07 19:58N 35°31' E 139°45'0 0.0
2018-May-07 19:28N 35°31' E 139°45'0 0.0
2018-May-07 18:58N 35°31' E 139°45'0 0.0
2018-May-07 18:28N 35°31' E 139°45'0 0.0
2018-May-07 17:58N 35°31' E 139°45'0 0.0
2018-May-07 17:28N 35°31' E 139°45'0 0.0
2018-May-07 16:58N 35°31' E 139°45'0 0.0
2018-May-07 16:28N 35°31' E 139°45'0 0.0
2018-May-07 15:58N 35°31' E 139°45'0 0.0
2018-May-07 15:28N 35°31' E 139°45'0 0.0
2018-May-07 14:55N 35°31' E 139°45'0 0.0
2018-May-07 14:28N 35°31' E 139°45'0 0.0
2018-May-07 13:58N 35°31' E 139°45'0 0.0
2018-May-07 13:28N 35°31' E 139°45'0 0.0
2018-May-07 12:58N 35°31' E 139°45'0 0.0
2018-May-07 12:22N 35°31' E 139°45'0 0.0
2018-May-07 11:58N 35°31' E 139°45'0 0.0
2018-May-07 11:28N 35°31' E 139°45'0 0.0
2018-May-07 10:58N 35°31' E 139°45'0 0.0
2018-May-07 10:28N 35°31' E 139°45'0 0.0
2018-May-07 09:58N 35°31' E 139°45'0 0.0
2018-May-07 09:28N 35°31' E 139°45'0 0.0
2018-May-07 08:58N 35°31' E 139°45'0 0.0
2018-May-07 08:28N 35°31' E 139°45'0 0.0
2018-May-07 07:58N 35°31' E 139°45'0 0.0
2018-May-07 07:25N 35°31' E 139°45'0 0.0
2018-May-07 06:58N 35°31' E 139°45'0 0.0
2018-May-07 06:28N 35°31' E 139°45'0 0.0
2018-May-07 05:58N 35°31' E 139°45'0 0.0
2018-May-07 05:28N 35°31' E 139°45'0 0.0
2018-May-07 04:58N 35°31' E 139°45'0 0.0
2018-May-07 04:28N 35°31' E 139°45'0 0.0
2018-May-07 03:58N 35°31' E 139°45'0 0.0
2018-May-07 03:28N 35°31' E 139°45'0 0.0
2018-May-07 02:58N 35°31' E 139°45'0 0.0
2018-May-07 02:28N 35°31' E 139°45'0 0.0
2018-May-07 01:58N 35°31' E 139°45'0 0.0
2018-May-07 01:25N 35°31' E 139°45'0 0.0
2018-May-07 00:58N 35°31' E 139°45'0 0.0
2018-May-07 00:28N 35°31' E 139°45'0 0.0
2018-May-06 23:58N 35°31' E 139°45'0 0.0
2018-May-06 23:28N 35°31' E 139°45'0 0.0
2018-May-06 22:58N 35°31' E 139°45'0 0.0
2018-May-06 22:28N 35°31' E 139°45'0 0.0
2018-May-06 21:58N 35°31' E 139°45'0 0.7
2018-May-06 21:30N 35°30' E 139°45'3 5.2
2018-May-06 21:00N 35°29' E 139°42'3 6.2
2018-May-06 20:30N 35°27' E 139°45'3 6.4
2018-May-06 20:00N 35°28' E 139°48'0 0.0
2018-May-06 19:30N 35°28' E 139°48'0 0.1
2018-May-06 19:00N 35°28' E 139°48'0 0.0
2018-May-06 18:30N 35°28' E 139°48'0 0.1
2018-May-06 18:00N 35°28' E 139°48'0 0.0
2018-May-06 17:30N 35°28' E 139°48'0 0.0
2018-May-06 17:00N 35°28' E 139°48'0 0.0
2018-May-06 16:30N 35°28' E 139°48'0 0.0
2018-May-06 16:00N 35°28' E 139°48'0 0.0
2018-May-06 15:30N 35°28' E 139°48'0 0.0
2018-May-06 15:00N 35°28' E 139°48'0 0.0
2018-May-06 14:30N 35°28' E 139°48'0 0.0
2018-May-06 14:00N 35°28' E 139°48'0 0.0
2018-May-06 13:30N 35°28' E 139°48'0 0.0
2018-May-06 13:00N 35°28' E 139°48'0 0.0
2018-May-06 12:30N 35°28' E 139°48'0 0.0
2018-May-06 12:00N 35°28' E 139°48'0 0.0
2018-May-06 11:30N 35°28' E 139°48'0 0.0
2018-May-06 11:00N 35°28' E 139°48'0 0.1
2018-May-06 10:30N 35°28' E 139°48'1 2.4
2018-May-06 10:00N 35°27' E 139°48'510.7
2018-May-06 09:30N 35°22' E 139°45'5 9.9
2018-May-06 09:00N 35°17' E 139°45'510.0
2018-May-06 08:30N 35°12' E 139°47'510.2
2018-May-06 08:00N 35°07' E 139°45'510.0
2018-May-06 07:30N 35°03' E 139°42'611.2
2018-May-06 07:00N 34°60' E 139°37'612.4
2018-May-06 06:30N 34°56' E 139°31'612.7
2018-May-06 06:00N 34°52' E 139°25'612.6
2018-May-06 05:30N 34°48' E 139°19'612.2
2018-May-06 04:59N 34°44' E 139°13'612.3
2018-May-06 04:30N 34°39' E 139°08'612.2
2018-May-06 04:00N 34°35' E 139°03'611.7
2018-May-06 03:30N 34°32' E 138°57'611.6
2018-May-06 03:00N 34°30' E 138°50'611.3
2018-May-06 02:30N 34°27' E 138°44'611.4
2018-May-06 02:00N 34°25' E 138°38'611.1
2018-May-06 01:29N 34°23' E 138°31'1310.4
2018-May-06 00:16N 34°18' E 138°17'410.3
2018-May-05 23:55N 34°16' E 138°13'710.0
2018-May-05 23:11N 34°13' E 138°05'310.2
2018-May-05 22:53N 34°12' E 138°02'11 9.8
2018-May-05 21:48N 34°08' E 137°50'  
Track history (hours):
 
Tides and Currents Weather Stations Pressure Air Temp Water Temp Dewpoint Dewpoint Depression Visibility Wind Speed Wind Dir Waves Ship Positions

Chang Sheng

Last reported at 2018-May-15 14:14 UTC. Time now 2018-May-24 12:09 UTC.
Position N 33°37' E 131°15'.
Warning: this ship's position is 8 days out of date.

Length 86 m; draft 4 m.

Type: Cargo ship. MMSI: 312161000.

Date/timePositionNaut miles runAvg speedWind from/ knotsBaromVisibWave heightAir tempDewpointWater temp
2018-May-15 14:14N 33°37' E 131°15'0 0.0
2018-May-15 13:56N 33°37' E 131°15'0 0.0
2018-May-15 13:29N 33°37' E 131°15'0 0.0
2018-May-15 12:53N 33°37' E 131°15'0 0.0
2018-May-15 12:23N 33°37' E 131°15'0 0.0
2018-May-15 11:59N 33°37' E 131°15'0 0.0
2018-May-15 11:29N 33°37' E 131°15'0 0.0
2018-May-15 10:59N 33°37' E 131°15'0 0.0
2018-May-15 10:29N 33°37' E 131°15'0 0.0
2018-May-15 09:59N 33°37' E 131°15'0 0.0
2018-May-15 09:05N 33°37' E 131°15'0 0.0
2018-May-15 08:53N 33°37' E 131°15'0 0.0
2018-May-15 08:29N 33°37' E 131°15'0 0.0
2018-May-15 07:56N 33°37' E 131°15'0 0.0
2018-May-15 07:29N 33°37' E 131°15'0 0.0
2018-May-15 06:59N 33°37' E 131°15'0 0.0
2018-May-15 06:29N 33°37' E 131°15'0 0.0
2018-May-15 05:59N 33°37' E 131°15'0 0.0
2018-May-15 05:30N 33°37' E 131°15'0 0.9
2018-May-15 05:00N 33°37' E 131°15'3 5.2
2018-May-15 04:30N 33°40' E 131°15'510.4
2018-May-15 04:00N 33°44' E 131°11'510.6
2018-May-15 03:30N 33°48' E 131°08'510.6
2018-May-15 03:00N 33°53' E 131°05'510.4
2018-May-15 02:30N 33°58' E 131°02'4 8.5
2018-May-15 02:00N 33°57' E 130°57'4 7.4
2018-May-15 01:30N 33°54' E 130°54'4 7.8
2018-May-15 01:00N 33°58' E 130°52'1 2.2
2018-May-15 00:30N 33°58' E 130°53'0 0.0
2018-May-15 00:00N 33°58' E 130°53'0 0.0
2018-May-14 23:30N 33°58' E 130°53'4 7.5
2018-May-14 23:00N 34°01' E 130°50'510.1
2018-May-14 22:30N 34°05' E 130°46'510.2
2018-May-14 22:00N 34°08' E 130°42'510.1
2018-May-14 21:30N 34°13' E 130°38'510.0
2018-May-14 21:00N 34°17' E 130°35'510.2
2018-May-14 20:30N 34°21' E 130°32'610.3
2018-May-14 19:57N 34°27' E 130°30'510.5
2018-May-14 19:30N 34°31' E 130°27'510.3
2018-May-14 19:00N 34°36' E 130°24'510.3
2018-May-14 18:30N 34°40' E 130°21'5 9.9
2018-May-14 18:00N 34°44' E 130°18'510.1
2018-May-14 17:30N 34°49' E 130°16'5 9.9
2018-May-14 17:00N 34°53' E 130°12'4 8.9
2018-May-14 16:30N 34°57' E 130°11'510.0
2018-May-14 16:00N 35°02' E 130°09'910.1
2018-May-14 15:04N 35°11' E 130°04'1 9.7
2018-May-14 14:55N 35°12' E 130°04'4 9.4
2018-May-14 14:27N 35°16' E 130°01'5 9.5
2018-May-14 13:54N 35°20' E 129°58'5 9.1
2018-May-14 13:21N 35°25' E 129°56'10 9.0
2018-May-14 12:11N 35°35' E 129°51'  
2018-May-12 00:15N 34°34' E 130°26'310.2
2018-May-11 23:59N 34°31' E 130°27'510.3
2018-May-11 23:31N 34°27' E 130°30'510.1
2018-May-11 22:59N 34°22' E 130°33'510.0
2018-May-11 22:30N 34°18' E 130°35'510.0
2018-May-11 21:59N 34°13' E 130°38'5 9.8
2018-May-11 21:30N 34°09' E 130°41'5 9.9
2018-May-11 21:01N 34°06' E 130°45'5 9.8
2018-May-11 20:31N 34°03' E 130°49'5 9.2
2018-May-11 20:01N 33°59' E 130°53'4 8.3
2018-May-11 19:30N 33°55' E 130°54'4 7.3
2018-May-11 19:00N 33°57' E 130°57'4 7.4
2018-May-11 18:30N 33°58' E 131°01'4 7.0
2018-May-11 18:01N 33°56' E 131°05'3 6.5
2018-May-11 17:30N 33°54' E 131°08'3 6.7
2018-May-11 17:00N 33°52' E 131°11'4 9.0
2018-May-11 16:31N 33°51' E 131°16'5 9.8
2018-May-11 16:01N 33°50' E 131°22'5 9.5
2018-May-11 15:31N 33°49' E 131°28'4 8.9
2018-May-11 15:01N 33°48' E 131°33'4 8.6
2018-May-11 14:30N 33°47' E 131°38'4 8.7
2018-May-11 14:01N 33°46' E 131°43'5 9.0
2018-May-11 13:30N 33°42' E 131°46'4 8.7
2018-May-11 13:00N 33°38' E 131°48'4 8.7
2018-May-11 12:30N 33°34' E 131°50'5 9.4
2018-May-11 12:00N 33°30' E 131°53'5 9.3
2018-May-11 11:30N 33°26' E 131°55'5 9.5
2018-May-11 11:01N 33°22' E 131°58'5 8.8
2018-May-11 10:26N 33°17' E 132°02'323 8.1
2018-May-09 18:31N 34°30' E 138°20'0 8.9
2018-May-09 18:28N 34°30' E 138°21'5 9.7
2018-May-09 17:57N 34°31' E 138°27'19 9.3
2018-May-09 15:51N 34°32' E 138°50'3 9.4
2018-May-09 15:30N 34°33' E 138°54'6 9.6
2018-May-09 14:51N 34°35' E 139°01'3 9.4
2018-May-09 14:31N 34°38' E 139°04'5 9.3
2018-May-09 14:00N 34°41' E 139°08'5 9.2
2018-May-09 13:28N 34°44' E 139°12'6 8.9
2018-May-09 12:51N 34°49' E 139°17'3 8.9
2018-May-09 12:29N 34°51' E 139°19'7 8.7
2018-May-09 11:41N 34°55' E 139°26'2 8.3
2018-May-09 11:25N 34°57' E 139°28'4 8.4
2018-May-09 11:00N 34°59' E 139°31'4 9.0
2018-May-09 10:30N 35°02' E 139°35'510.2
2018-May-09 10:00N 35°05' E 139°40'510.9
2018-May-09 09:30N 35°09' E 139°44'5 9.6
2018-May-09 09:00N 35°14' E 139°47'5 9.5
2018-May-09 08:30N 35°18' E 139°44'4 8.7
2018-May-09 08:00N 35°22' E 139°42'5 9.2
2018-May-09 07:30N 35°26' E 139°45'3 5.8
2018-May-09 06:58N 35°28' E 139°48'0 0.0
2018-May-09 06:28N 35°28' E 139°48'0 0.0
2018-May-09 05:58N 35°28' E 139°48'0 0.0
2018-May-09 05:28N 35°28' E 139°48'0 0.0
2018-May-09 04:58N 35°28' E 139°48'0 0.0
2018-May-09 04:28N 35°28' E 139°48'0 0.0
2018-May-09 03:58N 35°28' E 139°48'0 0.0
2018-May-09 03:28N 35°28' E 139°48'0 0.0
2018-May-09 02:58N 35°28' E 139°48'0 0.0
2018-May-09 02:25N 35°28' E 139°48'0 0.1
2018-May-09 02:00N 35°28' E 139°48'0 0.1
2018-May-09 01:30N 35°28' E 139°48'0 0.1
2018-May-09 01:00N 35°28' E 139°48'0 0.0
2018-May-09 00:30N 35°28' E 139°48'0 0.0
2018-May-09 00:00N 35°28' E 139°48'0 0.1
2018-May-08 23:30N 35°28' E 139°48'0 0.0
2018-May-08 23:00N 35°28' E 139°48'0 0.1
2018-May-08 22:30N 35°28' E 139°48'0 0.1
2018-May-08 22:00N 35°28' E 139°48'0 0.0
2018-May-08 21:30N 35°28' E 139°48'0 0.0
2018-May-08 21:00N 35°28' E 139°48'0 0.0
2018-May-08 20:30N 35°28' E 139°48'0 0.0
2018-May-08 20:00N 35°28' E 139°48'0 0.0
2018-May-08 19:30N 35°28' E 139°48'0 0.0
2018-May-08 19:00N 35°28' E 139°48'0 0.0
2018-May-08 18:30N 35°28' E 139°48'0 0.0
2018-May-08 18:00N 35°28' E 139°48'0 0.0
2018-May-08 17:30N 35°28' E 139°48'0 0.0
2018-May-08 17:00N 35°28' E 139°48'0 0.0
2018-May-08 16:30N 35°28' E 139°48'0 0.0
2018-May-08 16:00N 35°28' E 139°48'0 0.0
2018-May-08 15:30N 35°28' E 139°48'0 0.0
2018-May-08 15:00N 35°28' E 139°48'0 0.0
2018-May-08 14:24N 35°28' E 139°48'0 0.0
2018-May-08 13:57N 35°28' E 139°48'0 0.0
2018-May-08 13:30N 35°28' E 139°48'0 0.0
2018-May-08 13:00N 35°28' E 139°48'0 0.0
2018-May-08 12:30N 35°28' E 139°48'0 0.0
2018-May-08 12:00N 35°28' E 139°48'0 0.0
2018-May-08 11:27N 35°28' E 139°48'0 0.0
2018-May-08 11:00N 35°28' E 139°48'0 0.0
2018-May-08 10:30N 35°29' E 139°48'2 3.7
2018-May-08 10:00N 35°30' E 139°47'2 4.0
2018-May-08 09:30N 35°31' E 139°45'0 0.0
2018-May-08 08:59N 35°31' E 139°45'0 0.0
2018-May-08 08:29N 35°31' E 139°45'0 0.0
2018-May-08 07:59N 35°31' E 139°45'0 0.0
2018-May-08 07:28N 35°31' E 139°45'0 0.0
2018-May-08 06:58N 35°31' E 139°45'0 0.0
2018-May-08 06:28N 35°31' E 139°45'0 0.0
2018-May-08 05:58N 35°31' E 139°45'0 0.0
2018-May-08 05:28N 35°31' E 139°45'0 0.0
2018-May-08 04:55N 35°31' E 139°45'0 0.0
2018-May-08 04:28N 35°31' E 139°45'0 0.0
2018-May-08 03:58N 35°31' E 139°45'0 0.0
2018-May-08 03:28N 35°31' E 139°45'0 0.0
2018-May-08 02:58N 35°31' E 139°45'0 0.0
2018-May-08 02:28N 35°31' E 139°45'0 0.0
2018-May-08 01:58N 35°31' E 139°45'0 0.0
2018-May-08 01:28N 35°31' E 139°45'0 0.0
2018-May-08 00:58N 35°31' E 139°45'0 0.0
2018-May-08 00:28N 35°31' E 139°45'0 0.0
2018-May-07 23:58N 35°31' E 139°45'0 0.0
2018-May-07 23:28N 35°31' E 139°45'0 0.0
2018-May-07 22:55N 35°31' E 139°45'0 0.0
2018-May-07 22:28N 35°31' E 139°45'0 0.0
2018-May-07 21:58N 35°31' E 139°45'0 0.0
2018-May-07 21:25N 35°31' E 139°45'0 0.0
2018-May-07 20:55N 35°31' E 139°45'0 0.0
2018-May-07 20:28N 35°31' E 139°45'0 0.0
2018-May-07 19:58N 35°31' E 139°45'0 0.0
2018-May-07 19:28N 35°31' E 139°45'0 0.0
2018-May-07 18:58N 35°31' E 139°45'0 0.0
2018-May-07 18:28N 35°31' E 139°45'0 0.0
2018-May-07 17:58N 35°31' E 139°45'0 0.0
2018-May-07 17:28N 35°31' E 139°45'0 0.0
2018-May-07 16:58N 35°31' E 139°45'0 0.0
2018-May-07 16:28N 35°31' E 139°45'0 0.0
2018-May-07 15:58N 35°31' E 139°45'0 0.0
2018-May-07 15:28N 35°31' E 139°45'0 0.0
2018-May-07 14:55N 35°31' E 139°45'0 0.0
2018-May-07 14:28N 35°31' E 139°45'0 0.0
2018-May-07 13:58N 35°31' E 139°45'0 0.0
2018-May-07 13:28N 35°31' E 139°45'0 0.0
2018-May-07 12:58N 35°31' E 139°45'0 0.0
2018-May-07 12:22N 35°31' E 139°45'0 0.0
2018-May-07 11:58N 35°31' E 139°45'0 0.0
2018-May-07 11:28N 35°31' E 139°45'0 0.0
2018-May-07 10:58N 35°31' E 139°45'0 0.0
2018-May-07 10:28N 35°31' E 139°45'0 0.0
2018-May-07 09:58N 35°31' E 139°45'0 0.0
2018-May-07 09:28N 35°31' E 139°45'0 0.0
2018-May-07 08:58N 35°31' E 139°45'0 0.0
2018-May-07 08:28N 35°31' E 139°45'0 0.0
2018-May-07 07:58N 35°31' E 139°45'0 0.0
2018-May-07 07:25N 35°31' E 139°45'0 0.0
2018-May-07 06:58N 35°31' E 139°45'0 0.0
2018-May-07 06:28N 35°31' E 139°45'0 0.0
2018-May-07 05:58N 35°31' E 139°45'0 0.0
2018-May-07 05:28N 35°31' E 139°45'0 0.0
2018-May-07 04:58N 35°31' E 139°45'0 0.0
2018-May-07 04:28N 35°31' E 139°45'0 0.0
2018-May-07 03:58N 35°31' E 139°45'0 0.0
2018-May-07 03:28N 35°31' E 139°45'0 0.0
2018-May-07 02:58N 35°31' E 139°45'0 0.0
2018-May-07 02:28N 35°31' E 139°45'0 0.0
2018-May-07 01:58N 35°31' E 139°45'0 0.0
2018-May-07 01:25N 35°31' E 139°45'0 0.0
2018-May-07 00:58N 35°31' E 139°45'0 0.0
2018-May-07 00:28N 35°31' E 139°45'0 0.0
2018-May-06 23:58N 35°31' E 139°45'0 0.0
2018-May-06 23:28N 35°31' E 139°45'0 0.0
2018-May-06 22:58N 35°31' E 139°45'0 0.0
2018-May-06 22:28N 35°31' E 139°45'0 0.0
2018-May-06 21:58N 35°31' E 139°45'0 0.7
2018-May-06 21:30N 35°30' E 139°45'3 5.2
2018-May-06 21:00N 35°29' E 139°42'3 6.2
2018-May-06 20:30N 35°27' E 139°45'3 6.4
2018-May-06 20:00N 35°28' E 139°48'0 0.0
2018-May-06 19:30N 35°28' E 139°48'0 0.1
2018-May-06 19:00N 35°28' E 139°48'0 0.0
2018-May-06 18:30N 35°28' E 139°48'0 0.1
2018-May-06 18:00N 35°28' E 139°48'0 0.0
2018-May-06 17:30N 35°28' E 139°48'0 0.0
2018-May-06 17:00N 35°28' E 139°48'0 0.0
2018-May-06 16:30N 35°28' E 139°48'0 0.0
2018-May-06 16:00N 35°28' E 139°48'0 0.0
2018-May-06 15:30N 35°28' E 139°48'0 0.0
2018-May-06 15:00N 35°28' E 139°48'0 0.0
2018-May-06 14:30N 35°28' E 139°48'0 0.0
2018-May-06 14:00N 35°28' E 139°48'0 0.0
2018-May-06 13:30N 35°28' E 139°48'0 0.0
2018-May-06 13:00N 35°28' E 139°48'0 0.0
2018-May-06 12:30N 35°28' E 139°48'0 0.0
2018-May-06 12:00N 35°28' E 139°48'0 0.0
2018-May-06 11:30N 35°28' E 139°48'0 0.0
2018-May-06 11:00N 35°28' E 139°48'0 0.1
2018-May-06 10:30N 35°28' E 139°48'1 2.4
2018-May-06 10:00N 35°27' E 139°48'510.7
2018-May-06 09:30N 35°22' E 139°45'5 9.9
2018-May-06 09:00N 35°17' E 139°45'510.0
2018-May-06 08:30N 35°12' E 139°47'510.2
2018-May-06 08:00N 35°07' E 139°45'510.0
2018-May-06 07:30N 35°03' E 139°42'611.2
2018-May-06 07:00N 34°60' E 139°37'612.4
2018-May-06 06:30N 34°56' E 139°31'612.7
2018-May-06 06:00N 34°52' E 139°25'612.6
2018-May-06 05:30N 34°48' E 139°19'612.2
2018-May-06 04:59N 34°44' E 139°13'612.3
2018-May-06 04:30N 34°39' E 139°08'612.2
2018-May-06 04:00N 34°35' E 139°03'611.7
2018-May-06 03:30N 34°32' E 138°57'611.6
2018-May-06 03:00N 34°30' E 138°50'611.3
2018-May-06 02:30N 34°27' E 138°44'611.4
2018-May-06 02:00N 34°25' E 138°38'611.1
2018-May-06 01:29N 34°23' E 138°31'1310.4
2018-May-06 00:16N 34°18' E 138°17'410.3
2018-May-05 23:55N 34°16' E 138°13'710.0
2018-May-05 23:11N 34°13' E 138°05'310.2
2018-May-05 22:53N 34°12' E 138°02'11 9.8
2018-May-05 21:48N 34°08' E 137°50'  

Dump ship's entire track history